sensor_id;sensor_type;location;lat;lon;timestamp;P1;durP1;ratioP1;P2;durP2;ratioP2
54849;SDS011;47660;51.334;12.396;2022-08-19T00:01:38;12.20;;;6.45;;
54849;SDS011;47660;51.334;12.396;2022-08-19T00:04:06;14.02;;;7.63;;
54849;SDS011;47660;51.334;12.396;2022-08-19T00:06:35;11.07;;;6.13;;
54849;SDS011;47660;51.334;12.396;2022-08-19T00:09:00;11.70;;;6.65;;
54849;SDS011;47660;51.334;12.396;2022-08-19T00:11:26;11.25;;;6.20;;
54849;SDS011;47660;51.334;12.396;2022-08-19T00:13:54;11.63;;;6.53;;
54849;SDS011;47660;51.334;12.396;2022-08-19T00:16:21;9.80;;;5.45;;
54849;SDS011;47660;51.334;12.396;2022-08-19T00:18:47;14.93;;;7.43;;
54849;SDS011;47660;51.334;12.396;2022-08-19T00:21:13;11.23;;;6.30;;
54849;SDS011;47660;51.334;12.396;2022-08-19T00:23:39;12.63;;;6.20;;
54849;SDS011;47660;51.334;12.396;2022-08-19T00:26:04;10.35;;;6.20;;
54849;SDS011;47660;51.334;12.396;2022-08-19T00:28:30;10.13;;;6.07;;
54849;SDS011;47660;51.334;12.396;2022-08-19T00:30:58;13.45;;;6.43;;
54849;SDS011;47660;51.334;12.396;2022-08-19T00:33:23;11.88;;;6.18;;
54849;SDS011;47660;51.334;12.396;2022-08-19T00:35:48;8.93;;;5.23;;
54849;SDS011;47660;51.334;12.396;2022-08-19T00:38:14;9.87;;;5.77;;
54849;SDS011;47660;51.334;12.396;2022-08-19T00:40:39;13.63;;;6.97;;
54849;SDS011;47660;51.334;12.396;2022-08-19T00:43:10;13.13;;;7.10;;
54849;SDS011;47660;51.334;12.396;2022-08-19T00:45:38;12.30;;;6.88;;
54849;SDS011;47660;51.334;12.396;2022-08-19T00:48:06;14.88;;;7.30;;
54849;SDS011;47660;51.334;12.396;2022-08-19T00:50:32;9.40;;;6.18;;
54849;SDS011;47660;51.334;12.396;2022-08-19T00:52:58;11.90;;;7.07;;
54849;SDS011;47660;51.334;12.396;2022-08-19T00:55:26;12.43;;;6.65;;
54849;SDS011;47660;51.334;12.396;2022-08-19T00:58:06;13.05;;;6.93;;
54849;SDS011;47660;51.334;12.396;2022-08-19T01:00:34;12.30;;;6.88;;
54849;SDS011;47660;51.334;12.396;2022-08-19T01:03:05;15.32;;;7.47;;
54849;SDS011;47660;51.334;12.396;2022-08-19T01:05:31;15.30;;;7.00;;
54849;SDS011;47660;51.334;12.396;2022-08-19T01:07:57;14.27;;;7.63;;
54849;SDS011;47660;51.334;12.396;2022-08-19T01:10:27;11.55;;;6.95;;
54849;SDS011;47660;51.334;12.396;2022-08-19T01:12:53;16.38;;;7.80;;
54849;SDS011;47660;51.334;12.396;2022-08-19T01:15:23;13.80;;;7.55;;
54849;SDS011;47660;51.334;12.396;2022-08-19T01:17:50;13.48;;;7.78;;
54849;SDS011;47660;51.334;12.396;2022-08-19T01:20:19;16.05;;;7.60;;
54849;SDS011;47660;51.334;12.396;2022-08-19T01:25:14;13.73;;;7.43;;
54849;SDS011;47660;51.334;12.396;2022-08-19T01:27:41;16.52;;;8.20;;
54849;SDS011;47660;51.334;12.396;2022-08-19T01:30:08;15.25;;;8.43;;
54849;SDS011;47660;51.334;12.396;2022-08-19T01:32:34;17.13;;;7.47;;
54849;SDS011;47660;51.334;12.396;2022-08-19T01:35:00;16.85;;;7.80;;
54849;SDS011;47660;51.334;12.396;2022-08-19T01:37:26;14.13;;;7.47;;
54849;SDS011;47660;51.334;12.396;2022-08-19T01:39:56;13.10;;;7.57;;
54849;SDS011;47660;51.334;12.396;2022-08-19T01:42:22;15.77;;;8.57;;
54849;SDS011;47660;51.334;12.396;2022-08-19T01:44:47;13.20;;;7.82;;
54849;SDS011;47660;51.334;12.396;2022-08-19T01:47:12;13.55;;;7.88;;
54849;SDS011;47660;51.334;12.396;2022-08-19T01:49:38;12.25;;;7.03;;
54849;SDS011;47660;51.334;12.396;2022-08-19T01:52:03;13.00;;;8.20;;
54849;SDS011;47660;51.334;12.396;2022-08-19T01:54:32;15.27;;;7.90;;
54849;SDS011;47660;51.334;12.396;2022-08-19T01:57:02;15.18;;;7.40;;
54849;SDS011;47660;51.334;12.396;2022-08-19T01:59:28;15.32;;;7.32;;
54849;SDS011;47660;51.334;12.396;2022-08-19T02:01:54;14.55;;;7.90;;
54849;SDS011;47660;51.334;12.396;2022-08-19T02:04:20;12.30;;;6.93;;
54849;SDS011;47660;51.334;12.396;2022-08-19T02:06:48;15.35;;;7.70;;
54849;SDS011;47660;51.334;12.396;2022-08-19T02:09:13;13.80;;;8.17;;
54849;SDS011;47660;51.334;12.396;2022-08-19T02:11:41;13.32;;;7.72;;
54849;SDS011;47660;51.334;12.396;2022-08-19T02:14:09;15.77;;;8.30;;
54849;SDS011;47660;51.334;12.396;2022-08-19T02:16:36;15.82;;;7.70;;
54849;SDS011;47660;51.334;12.396;2022-08-19T02:19:05;12.63;;;7.32;;
54849;SDS011;47660;51.334;12.396;2022-08-19T02:21:30;13.75;;;8.15;;
54849;SDS011;47660;51.334;12.396;2022-08-19T02:23:55;14.30;;;7.73;;
54849;SDS011;47660;51.334;12.396;2022-08-19T02:26:21;15.00;;;8.97;;
54849;SDS011;47660;51.334;12.396;2022-08-19T02:28:46;14.27;;;7.50;;
54849;SDS011;47660;51.334;12.396;2022-08-19T02:31:14;15.32;;;7.55;;
54849;SDS011;47660;51.334;12.396;2022-08-19T02:33:40;11.95;;;7.38;;
54849;SDS011;47660;51.334;12.396;2022-08-19T02:36:05;13.20;;;7.10;;
54849;SDS011;47660;51.334;12.396;2022-08-19T02:38:31;14.20;;;7.70;;
54849;SDS011;47660;51.334;12.396;2022-08-19T02:41:00;14.27;;;7.55;;
54849;SDS011;47660;51.334;12.396;2022-08-19T02:43:27;14.50;;;8.38;;
54849;SDS011;47660;51.334;12.396;2022-08-19T02:45:55;18.80;;;7.85;;
54849;SDS011;47660;51.334;12.396;2022-08-19T02:48:23;13.00;;;7.40;;
54849;SDS011;47660;51.334;12.396;2022-08-19T02:50:52;16.02;;;8.20;;
54849;SDS011;47660;51.334;12.396;2022-08-19T02:53:19;11.95;;;6.97;;
54849;SDS011;47660;51.334;12.396;2022-08-19T02:55:46;14.07;;;7.22;;
54849;SDS011;47660;51.334;12.396;2022-08-19T02:58:12;11.95;;;7.45;;
54849;SDS011;47660;51.334;12.396;2022-08-19T03:00:45;13.73;;;7.15;;
54849;SDS011;47660;51.334;12.396;2022-08-19T03:03:10;11.98;;;7.35;;
54849;SDS011;47660;51.334;12.396;2022-08-19T03:05:36;11.38;;;6.53;;
54849;SDS011;47660;51.334;12.396;2022-08-19T03:08:03;13.30;;;6.63;;
54849;SDS011;47660;51.334;12.396;2022-08-19T03:10:29;11.35;;;6.88;;
54849;SDS011;47660;51.334;12.396;2022-08-19T03:12:54;10.27;;;6.70;;
54849;SDS011;47660;51.334;12.396;2022-08-19T03:15:19;8.27;;;5.57;;
54849;SDS011;47660;51.334;12.396;2022-08-19T03:17:45;11.98;;;7.15;;
54849;SDS011;47660;51.334;12.396;2022-08-19T03:20:12;9.45;;;5.85;;
54849;SDS011;47660;51.334;12.396;2022-08-19T03:22:38;10.88;;;6.60;;
54849;SDS011;47660;51.334;12.396;2022-08-19T03:25:03;8.93;;;5.63;;
54849;SDS011;47660;51.334;12.396;2022-08-19T03:27:28;12.70;;;6.82;;
54849;SDS011;47660;51.334;12.396;2022-08-19T03:29:54;8.98;;;6.15;;
54849;SDS011;47660;51.334;12.396;2022-08-19T03:32:20;10.05;;;6.38;;
54849;SDS011;47660;51.334;12.396;2022-08-19T03:34:46;10.63;;;5.93;;
54849;SDS011;47660;51.334;12.396;2022-08-19T03:37:12;10.45;;;6.32;;
54849;SDS011;47660;51.334;12.396;2022-08-19T03:39:37;13.27;;;6.67;;
54849;SDS011;47660;51.334;12.396;2022-08-19T03:42:03;9.18;;;5.72;;
54849;SDS011;47660;51.334;12.396;2022-08-19T03:44:29;10.68;;;5.65;;
54849;SDS011;47660;51.334;12.396;2022-08-19T03:46:57;9.90;;;5.90;;
54849;SDS011;47660;51.334;12.396;2022-08-19T03:49:23;10.38;;;5.75;;
54849;SDS011;47660;51.334;12.396;2022-08-19T03:51:49;10.15;;;5.43;;
54849;SDS011;47660;51.334;12.396;2022-08-19T03:54:15;9.70;;;5.90;;
54849;SDS011;47660;51.334;12.396;2022-08-19T03:56:41;7.97;;;5.53;;
54849;SDS011;47660;51.334;12.396;2022-08-19T03:59:08;7.10;;;4.68;;
54849;SDS011;47660;51.334;12.396;2022-08-19T04:01:34;10.13;;;5.38;;
54849;SDS011;47660;51.334;12.396;2022-08-19T04:03:59;8.07;;;5.20;;
54849;SDS011;47660;51.334;12.396;2022-08-19T04:06:28;9.77;;;5.28;;
54849;SDS011;47660;51.334;12.396;2022-08-19T04:08:54;9.30;;;5.63;;
54849;SDS011;47660;51.334;12.396;2022-08-19T04:11:24;8.50;;;5.70;;
54849;SDS011;47660;51.334;12.396;2022-08-19T04:13:52;8.40;;;5.32;;
54849;SDS011;47660;51.334;12.396;2022-08-19T04:16:18;10.48;;;5.25;;
54849;SDS011;47660;51.334;12.396;2022-08-19T04:18:45;9.60;;;5.40;;
54849;SDS011;47660;51.334;12.396;2022-08-19T04:21:15;9.23;;;5.65;;
54849;SDS011;47660;51.334;12.396;2022-08-19T04:23:41;9.60;;;5.32;;
54849;SDS011;47660;51.334;12.396;2022-08-19T04:26:07;9.55;;;6.00;;
54849;SDS011;47660;51.334;12.396;2022-08-19T04:28:32;11.03;;;6.37;;
54849;SDS011;47660;51.334;12.396;2022-08-19T04:30:57;10.30;;;6.17;;
54849;SDS011;47660;51.334;12.396;2022-08-19T04:33:24;12.63;;;6.65;;
54849;SDS011;47660;51.334;12.396;2022-08-19T04:35:50;12.15;;;6.68;;
54849;SDS011;47660;51.334;12.396;2022-08-19T04:38:17;14.45;;;6.63;;
54849;SDS011;47660;51.334;12.396;2022-08-19T04:40:47;10.13;;;6.18;;
54849;SDS011;47660;51.334;12.396;2022-08-19T04:43:32;14.98;;;7.50;;
54849;SDS011;47660;51.334;12.396;2022-08-19T04:45:57;13.82;;;6.95;;
54849;SDS011;47660;51.334;12.396;2022-08-19T04:48:25;14.32;;;8.10;;
54849;SDS011;47660;51.334;12.396;2022-08-19T04:50:54;14.43;;;7.78;;
54849;SDS011;47660;51.334;12.396;2022-08-19T04:53:29;12.38;;;7.25;;
54849;SDS011;47660;51.334;12.396;2022-08-19T04:55:55;13.82;;;6.95;;
54849;SDS011;47660;51.334;12.396;2022-08-19T04:58:21;14.50;;;7.72;;
54849;SDS011;47660;51.334;12.396;2022-08-19T05:00:49;12.07;;;7.22;;
54849;SDS011;47660;51.334;12.396;2022-08-19T05:03:14;13.02;;;7.38;;
54849;SDS011;47660;51.334;12.396;2022-08-19T05:05:42;15.27;;;7.70;;
54849;SDS011;47660;51.334;12.396;2022-08-19T05:08:07;14.52;;;7.80;;
54849;SDS011;47660;51.334;12.396;2022-08-19T05:10:35;13.18;;;8.60;;
54849;SDS011;47660;51.334;12.396;2022-08-19T05:13:03;13.52;;;8.15;;
54849;SDS011;47660;51.334;12.396;2022-08-19T05:15:28;15.45;;;8.45;;
54849;SDS011;47660;51.334;12.396;2022-08-19T05:17:53;13.70;;;7.37;;
54849;SDS011;47660;51.334;12.396;2022-08-19T05:20:38;15.68;;;8.18;;
54849;SDS011;47660;51.334;12.396;2022-08-19T05:23:22;15.90;;;8.43;;
54849;SDS011;47660;51.334;12.396;2022-08-19T05:25:50;18.15;;;9.90;;
54849;SDS011;47660;51.334;12.396;2022-08-19T05:28:16;18.67;;;8.77;;
54849;SDS011;47660;51.334;12.396;2022-08-19T05:30:41;21.80;;;9.90;;
54849;SDS011;47660;51.334;12.396;2022-08-19T05:33:09;17.92;;;8.70;;
54849;SDS011;47660;51.334;12.396;2022-08-19T05:35:37;19.10;;;8.88;;
54849;SDS011;47660;51.334;12.396;2022-08-19T05:38:02;18.02;;;9.20;;
54849;SDS011;47660;51.334;12.396;2022-08-19T05:40:28;17.00;;;8.85;;
54849;SDS011;47660;51.334;12.396;2022-08-19T05:42:53;18.83;;;10.00;;
54849;SDS011;47660;51.334;12.396;2022-08-19T05:45:21;21.17;;;9.70;;
54849;SDS011;47660;51.334;12.396;2022-08-19T05:47:47;24.15;;;9.85;;
54849;SDS011;47660;51.334;12.396;2022-08-19T05:50:12;16.50;;;9.48;;
54849;SDS011;47660;51.334;12.396;2022-08-19T05:52:37;21.30;;;10.45;;
54849;SDS011;47660;51.334;12.396;2022-08-19T05:55:05;22.20;;;10.65;;
54849;SDS011;47660;51.334;12.396;2022-08-19T05:57:31;22.00;;;9.73;;
54849;SDS011;47660;51.334;12.396;2022-08-19T05:59:56;22.63;;;11.70;;
54849;SDS011;47660;51.334;12.396;2022-08-19T06:02:22;21.33;;;9.88;;
54849;SDS011;47660;51.334;12.396;2022-08-19T06:04:47;20.45;;;10.60;;
54849;SDS011;47660;51.334;12.396;2022-08-19T06:07:12;20.85;;;10.68;;
54849;SDS011;47660;51.334;12.396;2022-08-19T06:09:41;20.00;;;10.10;;
54849;SDS011;47660;51.334;12.396;2022-08-19T06:12:07;17.75;;;9.80;;
54849;SDS011;47660;51.334;12.396;2022-08-19T06:14:33;19.17;;;9.82;;
54849;SDS011;47660;51.334;12.396;2022-08-19T06:16:59;18.20;;;9.90;;
54849;SDS011;47660;51.334;12.396;2022-08-19T06:19:27;19.92;;;11.45;;
54849;SDS011;47660;51.334;12.396;2022-08-19T06:21:55;17.65;;;10.13;;
54849;SDS011;47660;51.334;12.396;2022-08-19T06:24:21;18.67;;;9.68;;
54849;SDS011;47660;51.334;12.396;2022-08-19T06:26:49;18.17;;;10.30;;
54849;SDS011;47660;51.334;12.396;2022-08-19T06:29:16;20.30;;;9.90;;
54849;SDS011;47660;51.334;12.396;2022-08-19T06:31:44;21.27;;;10.82;;
54849;SDS011;47660;51.334;12.396;2022-08-19T06:34:09;19.45;;;9.23;;
54849;SDS011;47660;51.334;12.396;2022-08-19T06:36:36;22.50;;;10.68;;
54849;SDS011;47660;51.334;12.396;2022-08-19T06:39:05;19.10;;;10.48;;
54849;SDS011;47660;51.334;12.396;2022-08-19T06:41:32;19.08;;;10.90;;
54849;SDS011;47660;51.334;12.396;2022-08-19T06:44:01;19.25;;;10.93;;
54849;SDS011;47660;51.334;12.396;2022-08-19T06:46:26;18.60;;;10.45;;
54849;SDS011;47660;51.334;12.396;2022-08-19T06:48:54;19.63;;;9.90;;
54849;SDS011;47660;51.334;12.396;2022-08-19T06:51:20;19.33;;;10.68;;
54849;SDS011;47660;51.334;12.396;2022-08-19T06:53:49;23.13;;;10.43;;
54849;SDS011;47660;51.334;12.396;2022-08-19T06:56:16;19.77;;;11.02;;
54849;SDS011;47660;51.334;12.396;2022-08-19T06:58:41;17.80;;;9.93;;
54849;SDS011;47660;51.334;12.396;2022-08-19T07:01:09;19.80;;;11.10;;
54849;SDS011;47660;51.334;12.396;2022-08-19T07:03:35;26.52;;;11.95;;
54849;SDS011;47660;51.334;12.396;2022-08-19T07:06:04;27.33;;;10.98;;
54849;SDS011;47660;51.334;12.396;2022-08-19T07:08:30;25.13;;;11.13;;
54849;SDS011;47660;51.334;12.396;2022-08-19T07:10:55;17.73;;;9.10;;
54849;SDS011;47660;51.334;12.396;2022-08-19T07:13:20;25.85;;;10.43;;
54849;SDS011;47660;51.334;12.396;2022-08-19T07:15:47;21.63;;;10.73;;
54849;SDS011;47660;51.334;12.396;2022-08-19T07:18:15;17.85;;;10.02;;
54849;SDS011;47660;51.334;12.396;2022-08-19T07:20:40;19.27;;;9.88;;
54849;SDS011;47660;51.334;12.396;2022-08-19T07:23:08;16.35;;;9.02;;
54849;SDS011;47660;51.334;12.396;2022-08-19T07:25:33;19.02;;;10.10;;
54849;SDS011;47660;51.334;12.396;2022-08-19T07:27:59;19.65;;;10.70;;
54849;SDS011;47660;51.334;12.396;2022-08-19T07:30:24;21.77;;;9.32;;
54849;SDS011;47660;51.334;12.396;2022-08-19T07:32:50;20.75;;;10.00;;
54849;SDS011;47660;51.334;12.396;2022-08-19T07:35:17;19.25;;;9.88;;
54849;SDS011;47660;51.334;12.396;2022-08-19T07:37:44;20.45;;;9.65;;
54849;SDS011;47660;51.334;12.396;2022-08-19T07:40:12;20.80;;;10.07;;
54849;SDS011;47660;51.334;12.396;2022-08-19T07:42:37;17.80;;;8.73;;
54849;SDS011;47660;51.334;12.396;2022-08-19T07:45:03;18.83;;;9.15;;
54849;SDS011;47660;51.334;12.396;2022-08-19T07:47:28;20.42;;;10.15;;
54849;SDS011;47660;51.334;12.396;2022-08-19T07:49:55;14.10;;;7.88;;
54849;SDS011;47660;51.334;12.396;2022-08-19T07:52:20;18.67;;;9.63;;
54849;SDS011;47660;51.334;12.396;2022-08-19T07:54:45;17.00;;;8.50;;
54849;SDS011;47660;51.334;12.396;2022-08-19T07:57:10;21.85;;;10.27;;
54849;SDS011;47660;51.334;12.396;2022-08-19T07:59:36;16.25;;;9.38;;
54849;SDS011;47660;51.334;12.396;2022-08-19T08:02:02;16.08;;;8.80;;
54849;SDS011;47660;51.334;12.396;2022-08-19T08:04:30;20.45;;;9.23;;
54849;SDS011;47660;51.334;12.396;2022-08-19T08:07:14;17.70;;;7.95;;
54849;SDS011;47660;51.334;12.396;2022-08-19T08:10:00;16.25;;;8.35;;
54849;SDS011;47660;51.334;12.396;2022-08-19T08:12:33;20.45;;;9.15;;
54849;SDS011;47660;51.334;12.396;2022-08-19T08:14:59;16.52;;;8.75;;
54849;SDS011;47660;51.334;12.396;2022-08-19T08:17:29;17.38;;;8.98;;
54849;SDS011;47660;51.334;12.396;2022-08-19T08:19:54;18.17;;;8.85;;
54849;SDS011;47660;51.334;12.396;2022-08-19T08:22:21;18.77;;;8.65;;
54849;SDS011;47660;51.334;12.396;2022-08-19T08:25:10;19.10;;;8.98;;
54849;SDS011;47660;51.334;12.396;2022-08-19T08:27:36;17.48;;;8.60;;
54849;SDS011;47660;51.334;12.396;2022-08-19T08:30:04;14.65;;;7.97;;
54849;SDS011;47660;51.334;12.396;2022-08-19T08:32:31;19.40;;;9.02;;
54849;SDS011;47660;51.334;12.396;2022-08-19T08:34:56;17.25;;;9.52;;
54849;SDS011;47660;51.334;12.396;2022-08-19T08:37:22;17.45;;;9.25;;
54849;SDS011;47660;51.334;12.396;2022-08-19T08:39:47;19.10;;;10.07;;
54849;SDS011;47660;51.334;12.396;2022-08-19T08:42:18;14.07;;;7.82;;
54849;SDS011;47660;51.334;12.396;2022-08-19T08:47:19;18.90;;;10.20;;
54849;SDS011;47660;51.334;12.396;2022-08-19T08:50:21;15.30;;;8.55;;
54849;SDS011;47660;51.334;12.396;2022-08-19T08:52:41;18.05;;;8.25;;
54849;SDS011;47660;51.334;12.396;2022-08-19T08:55:12;15.68;;;8.07;;
54849;SDS011;47660;51.334;12.396;2022-08-19T08:57:51;15.27;;;7.32;;
54849;SDS011;47660;51.334;12.396;2022-08-19T09:00:42;14.43;;;8.00;;
54849;SDS011;47660;51.334;12.396;2022-08-19T09:03:21;16.75;;;8.57;;
54849;SDS011;47660;51.334;12.396;2022-08-19T09:06:03;12.05;;;7.50;;
54849;SDS011;47660;51.334;12.396;2022-08-19T09:10:59;16.90;;;9.65;;
54849;SDS011;47660;51.334;12.396;2022-08-19T09:16:08;16.17;;;8.70;;
54849;SDS011;47660;51.334;12.396;2022-08-19T09:18:45;13.63;;;8.15;;
54849;SDS011;47660;51.334;12.396;2022-08-19T09:21:14;17.27;;;8.38;;
54849;SDS011;47660;51.334;12.396;2022-08-19T09:23:39;14.73;;;7.90;;
54849;SDS011;47660;51.334;12.396;2022-08-19T09:26:09;16.13;;;7.90;;
54849;SDS011;47660;51.334;12.396;2022-08-19T09:28:34;17.50;;;7.82;;
54849;SDS011;47660;51.334;12.396;2022-08-19T09:31:00;14.68;;;7.25;;
54849;SDS011;47660;51.334;12.396;2022-08-19T09:33:27;19.73;;;8.65;;
54849;SDS011;47660;51.334;12.396;2022-08-19T09:36:14;17.00;;;9.05;;
54849;SDS011;47660;51.334;12.396;2022-08-19T09:38:38;15.97;;;9.30;;
54849;SDS011;47660;51.334;12.396;2022-08-19T09:41:06;19.83;;;9.35;;
54849;SDS011;47660;51.334;12.396;2022-08-19T09:43:32;12.20;;;7.78;;
54849;SDS011;47660;51.334;12.396;2022-08-19T09:45:58;18.50;;;9.13;;
54849;SDS011;47660;51.334;12.396;2022-08-19T09:48:25;16.35;;;9.15;;
54849;SDS011;47660;51.334;12.396;2022-08-19T09:50:50;13.55;;;8.15;;
54849;SDS011;47660;51.334;12.396;2022-08-19T09:53:16;14.75;;;7.90;;
54849;SDS011;47660;51.334;12.396;2022-08-19T09:55:42;15.57;;;7.20;;
54849;SDS011;47660;51.334;12.396;2022-08-19T09:58:07;15.65;;;8.00;;
54849;SDS011;47660;51.334;12.396;2022-08-19T10:00:33;17.67;;;8.13;;
54849;SDS011;47660;51.334;12.396;2022-08-19T10:02:58;17.08;;;9.48;;
54849;SDS011;47660;51.334;12.396;2022-08-19T10:05:23;11.63;;;7.63;;
54849;SDS011;47660;51.334;12.396;2022-08-19T10:08:10;15.43;;;7.72;;
54849;SDS011;47660;51.334;12.396;2022-08-19T10:10:36;11.75;;;6.80;;
54849;SDS011;47660;51.334;12.396;2022-08-19T10:13:02;12.38;;;7.10;;
54849;SDS011;47660;51.334;12.396;2022-08-19T10:15:27;13.93;;;7.88;;
54849;SDS011;47660;51.334;12.396;2022-08-19T10:17:52;10.95;;;6.65;;
54849;SDS011;47660;51.334;12.396;2022-08-19T10:20:17;13.95;;;7.13;;
54849;SDS011;47660;51.334;12.396;2022-08-19T10:22:43;14.27;;;6.30;;
54849;SDS011;47660;51.334;12.396;2022-08-19T10:25:08;14.95;;;7.45;;
54849;SDS011;47660;51.334;12.396;2022-08-19T10:27:33;11.93;;;6.22;;
54849;SDS011;47660;51.334;12.396;2022-08-19T10:29:59;16.17;;;7.37;;
54849;SDS011;47660;51.334;12.396;2022-08-19T10:32:27;12.55;;;7.07;;
54849;SDS011;47660;51.334;12.396;2022-08-19T10:34:54;10.27;;;5.80;;
54849;SDS011;47660;51.334;12.396;2022-08-19T10:37:19;16.13;;;6.47;;
54849;SDS011;47660;51.334;12.396;2022-08-19T10:39:46;13.53;;;7.50;;
54849;SDS011;47660;51.334;12.396;2022-08-19T10:42:16;10.65;;;6.35;;
54849;SDS011;47660;51.334;12.396;2022-08-19T10:44:43;8.95;;;5.38;;
54849;SDS011;47660;51.334;12.396;2022-08-19T10:47:10;9.45;;;5.35;;
54849;SDS011;47660;51.334;12.396;2022-08-19T10:49:36;10.13;;;5.20;;
54849;SDS011;47660;51.334;12.396;2022-08-19T10:52:24;17.20;;;7.35;;
54849;SDS011;47660;51.334;12.396;2022-08-19T10:55:02;32.60;;;16.35;;
54849;SDS011;47660;51.334;12.396;2022-08-19T10:57:47;11.37;;;6.30;;
54849;SDS011;47660;51.334;12.396;2022-08-19T11:00:13;43.83;;;21.00;;
54849;SDS011;47660;51.334;12.396;2022-08-19T11:02:38;11.32;;;6.68;;
54849;SDS011;47660;51.334;12.396;2022-08-19T11:05:04;33.22;;;13.20;;
54849;SDS011;47660;51.334;12.396;2022-08-19T11:07:29;11.73;;;6.90;;
54849;SDS011;47660;51.334;12.396;2022-08-19T11:09:54;10.00;;;5.88;;
54849;SDS011;47660;51.334;12.396;2022-08-19T11:12:22;13.35;;;5.95;;
54849;SDS011;47660;51.334;12.396;2022-08-19T11:14:48;10.43;;;4.68;;
54849;SDS011;47660;51.334;12.396;2022-08-19T11:17:17;9.00;;;5.28;;
54849;SDS011;47660;51.334;12.396;2022-08-19T11:19:42;13.07;;;6.78;;
54849;SDS011;47660;51.334;12.396;2022-08-19T11:22:10;10.93;;;5.93;;
54849;SDS011;47660;51.334;12.396;2022-08-19T11:24:35;9.75;;;5.03;;
54849;SDS011;47660;51.334;12.396;2022-08-19T11:27:03;9.65;;;5.25;;
54849;SDS011;47660;51.334;12.396;2022-08-19T11:29:30;7.97;;;5.40;;
54849;SDS011;47660;51.334;12.396;2022-08-19T11:31:56;10.88;;;5.07;;
54849;SDS011;47660;51.334;12.396;2022-08-19T11:34:26;12.00;;;5.55;;
54849;SDS011;47660;51.334;12.396;2022-08-19T11:36:55;8.52;;;5.07;;
54849;SDS011;47660;51.334;12.396;2022-08-19T11:39:25;9.45;;;5.25;;
54849;SDS011;47660;51.334;12.396;2022-08-19T11:41:50;8.80;;;5.50;;
54849;SDS011;47660;51.334;12.396;2022-08-19T11:44:16;12.10;;;6.53;;
54849;SDS011;47660;51.334;12.396;2022-08-19T11:46:42;9.65;;;4.95;;
54849;SDS011;47660;51.334;12.396;2022-08-19T11:49:11;8.00;;;4.60;;
54849;SDS011;47660;51.334;12.396;2022-08-19T11:51:36;6.70;;;4.30;;
54849;SDS011;47660;51.334;12.396;2022-08-19T11:54:03;10.00;;;4.10;;
54849;SDS011;47660;51.334;12.396;2022-08-19T11:56:29;7.38;;;4.38;;
54849;SDS011;47660;51.334;12.396;2022-08-19T11:58:57;6.95;;;3.92;;
54849;SDS011;47660;51.334;12.396;2022-08-19T12:01:25;8.02;;;4.00;;
54849;SDS011;47660;51.334;12.396;2022-08-19T12:03:51;11.25;;;4.43;;
54849;SDS011;47660;51.334;12.396;2022-08-19T12:06:18;8.32;;;4.80;;
54849;SDS011;47660;51.334;12.396;2022-08-19T12:08:43;9.13;;;4.93;;
54849;SDS011;47660;51.334;12.396;2022-08-19T12:11:09;9.82;;;4.88;;
54849;SDS011;47660;51.334;12.396;2022-08-19T12:13:35;6.05;;;4.05;;
54849;SDS011;47660;51.334;12.396;2022-08-19T12:16:00;7.85;;;4.60;;
54849;SDS011;47660;51.334;12.396;2022-08-19T12:18:31;8.13;;;4.13;;
54849;SDS011;47660;51.334;12.396;2022-08-19T12:20:56;5.37;;;4.00;;
54849;SDS011;47660;51.334;12.396;2022-08-19T12:23:27;8.70;;;4.38;;
54849;SDS011;47660;51.334;12.396;2022-08-19T12:25:53;8.85;;;4.13;;
54849;SDS011;47660;51.334;12.396;2022-08-19T12:28:20;9.68;;;4.88;;
54849;SDS011;47660;51.334;12.396;2022-08-19T12:30:46;6.88;;;4.20;;
54849;SDS011;47660;51.334;12.396;2022-08-19T12:33:11;8.18;;;5.28;;
54849;SDS011;47660;51.334;12.396;2022-08-19T12:35:42;9.07;;;4.90;;
54849;SDS011;47660;51.334;12.396;2022-08-19T12:38:08;7.43;;;4.35;;
54849;SDS011;47660;51.334;12.396;2022-08-19T12:40:34;7.95;;;4.22;;
54849;SDS011;47660;51.334;12.396;2022-08-19T12:42:59;7.20;;;4.13;;
54849;SDS011;47660;51.334;12.396;2022-08-19T12:45:27;8.82;;;4.10;;
54849;SDS011;47660;51.334;12.396;2022-08-19T12:47:52;10.63;;;4.30;;
54849;SDS011;47660;51.334;12.396;2022-08-19T12:50:18;7.10;;;3.95;;
54849;SDS011;47660;51.334;12.396;2022-08-19T12:52:43;6.82;;;4.72;;
54849;SDS011;47660;51.334;12.396;2022-08-19T12:55:08;9.97;;;4.70;;
54849;SDS011;47660;51.334;12.396;2022-08-19T12:57:37;7.85;;;4.03;;
54849;SDS011;47660;51.334;12.396;2022-08-19T13:00:04;11.75;;;4.90;;
54849;SDS011;47660;51.334;12.396;2022-08-19T13:02:33;7.50;;;4.18;;
54849;SDS011;47660;51.334;12.396;2022-08-19T13:04:59;7.13;;;4.72;;
54849;SDS011;47660;51.334;12.396;2022-08-19T13:07:25;8.77;;;5.20;;
54849;SDS011;47660;51.334;12.396;2022-08-19T13:09:51;9.17;;;4.97;;
54849;SDS011;47660;51.334;12.396;2022-08-19T13:12:18;8.23;;;4.88;;
54849;SDS011;47660;51.334;12.396;2022-08-19T13:14:49;6.72;;;5.10;;
54849;SDS011;47660;51.334;12.396;2022-08-19T13:17:15;7.70;;;4.68;;
54849;SDS011;47660;51.334;12.396;2022-08-19T13:19:40;6.25;;;4.30;;
54849;SDS011;47660;51.334;12.396;2022-08-19T13:22:07;7.65;;;4.82;;
54849;SDS011;47660;51.334;12.396;2022-08-19T13:24:33;7.43;;;4.60;;
54849;SDS011;47660;51.334;12.396;2022-08-19T13:26:59;10.85;;;5.95;;
54849;SDS011;47660;51.334;12.396;2022-08-19T13:29:24;8.07;;;4.68;;
54849;SDS011;47660;51.334;12.396;2022-08-19T13:32:10;9.38;;;5.07;;
54849;SDS011;47660;51.334;12.396;2022-08-19T13:34:54;8.65;;;4.57;;
54849;SDS011;47660;51.334;12.396;2022-08-19T13:37:20;8.98;;;5.10;;
54849;SDS011;47660;51.334;12.396;2022-08-19T13:40:06;11.20;;;5.35;;
54849;SDS011;47660;51.334;12.396;2022-08-19T13:42:31;10.02;;;5.47;;
54849;SDS011;47660;51.334;12.396;2022-08-19T13:44:59;9.40;;;5.45;;
54849;SDS011;47660;51.334;12.396;2022-08-19T13:47:25;8.05;;;5.40;;
54849;SDS011;47660;51.334;12.396;2022-08-19T13:49:50;8.20;;;4.25;;
54849;SDS011;47660;51.334;12.396;2022-08-19T13:52:15;9.00;;;4.63;;
54849;SDS011;47660;51.334;12.396;2022-08-19T13:54:41;10.77;;;4.93;;
54849;SDS011;47660;51.334;12.396;2022-08-19T13:57:06;8.90;;;5.07;;
54849;SDS011;47660;51.334;12.396;2022-08-19T13:59:31;8.53;;;4.43;;
54849;SDS011;47660;51.334;12.396;2022-08-19T14:02:00;7.43;;;4.55;;
54849;SDS011;47660;51.334;12.396;2022-08-19T14:04:25;7.82;;;4.95;;
54849;SDS011;47660;51.334;12.396;2022-08-19T14:06:50;9.82;;;5.68;;
54849;SDS011;47660;51.334;12.396;2022-08-19T14:09:15;7.27;;;4.63;;
54849;SDS011;47660;51.334;12.396;2022-08-19T14:11:41;9.50;;;5.17;;
54849;SDS011;47660;51.334;12.396;2022-08-19T14:14:10;10.00;;;5.25;;
54849;SDS011;47660;51.334;12.396;2022-08-19T14:16:35;8.02;;;4.35;;
54849;SDS011;47660;51.334;12.396;2022-08-19T14:19:01;8.10;;;5.05;;
54849;SDS011;47660;51.334;12.396;2022-08-19T14:21:26;7.22;;;4.57;;
54849;SDS011;47660;51.334;12.396;2022-08-19T14:23:51;9.17;;;4.60;;
54849;SDS011;47660;51.334;12.396;2022-08-19T14:26:18;9.55;;;5.38;;
54849;SDS011;47660;51.334;12.396;2022-08-19T14:28:44;6.85;;;4.57;;
54849;SDS011;47660;51.334;12.396;2022-08-19T14:31:12;8.57;;;4.68;;
54849;SDS011;47660;51.334;12.396;2022-08-19T14:33:38;9.80;;;4.82;;
54849;SDS011;47660;51.334;12.396;2022-08-19T14:36:04;6.95;;;4.53;;